Time;durP1;ratioP1;P1;durP2;ratioP2;P2;SDS_P1;SDS_P2;PMS_P1;PMS_P2;Temp;Humidity;BMP_temperature;BMP_pressure;BME280_temperature;BME280_humidity;BME280_pressure;Samples;Min_cycle;Max_cycle;Signal;HPM_P1;HPM_P2
2020/12/25 00:02:10;;;;;;;0.70;0.50;;;4.70;99.90;;;;;;5101113;28;20391;-60
2020/12/25 00:04:36;;;;;;;12.93;1.00;;;4.70;99.90;;;;;;5111949;28;20028;-61
2020/12/25 00:07:03;;;;;;;1.92;0.47;;;4.60;99.90;;;;;;5109357;28;20107;-60
2020/12/25 00:09:29;;;;;;;0.85;0.40;;;4.60;99.90;;;;;;5109847;28;20070;-58
2020/12/25 00:11:54;;;;;;;1.08;0.50;;;4.50;99.90;;;;;;5096328;28;20447;-59
2020/12/25 00:14:20;;;;;;;2.72;0.57;;;4.50;99.90;;;;;;5108291;28;20035;-60
2020/12/25 00:16:45;;;;;;;0.75;0.50;;;4.50;99.90;;;;;;5107103;28;20523;-60
2020/12/25 00:19:11;;;;;;;4.75;0.60;;;4.50;99.90;;;;;;5103487;28;20076;-59
2020/12/25 00:21:37;;;;;;;6.88;0.52;;;4.50;99.90;;;;;;5111130;28;20049;-60
2020/12/25 00:24:04;;;;;;;0.80;0.50;;;4.50;99.90;;;;;;5109828;28;20022;-59
2020/12/25 00:26:31;;;;;;;6.97;1.23;;;4.40;99.90;;;;;;5109792;28;20044;-59
2020/12/25 00:28:58;;;;;;;3.58;0.40;;;4.40;99.90;;;;;;5106220;28;20045;-60
2020/12/25 00:31:34;;;;;;;2.30;0.80;;;4.40;99.90;;;;;;5088425;28;20028;-61
2020/12/25 00:34:02;;;;;;;1.08;0.30;;;4.40;99.90;;;;;;5105370;28;20073;-59
2020/12/25 00:36:30;;;;;;;3.00;0.47;;;4.40;99.90;;;;;;5107801;28;20062;-60
2020/12/25 00:38:58;;;;;;;2.58;0.50;;;4.30;99.90;;;;;;5105072;28;20023;-60
2020/12/25 00:41:24;;;;;;;6.80;1.10;;;4.30;99.90;;;;;;5105992;28;20374;-59
2020/12/25 00:43:50;;;;;;;3.72;0.85;;;4.30;99.90;;;;;;5117633;27;20071;-60
2020/12/25 00:46:16;;;;;;;1.25;0.40;;;4.30;99.90;;;;;;5125982;27;20079;-59
2020/12/25 00:48:42;;;;;;;1.85;0.45;;;4.20;99.90;;;;;;5113136;27;20045;-60
2020/12/25 00:51:15;;;;;;;0.30;0.20;;;4.10;99.90;;;;;;5129965;27;20445;-62
2020/12/25 00:53:41;;;;;;;4.30;0.65;;;4.10;99.90;;;;;;5125481;27;20027;-57
2020/12/25 00:56:08;;;;;;;1.33;0.55;;;4.10;99.90;;;;;;5125369;27;20102;-59
2020/12/25 00:58:34;;;;;;;3.70;0.60;;;4.00;99.90;;;;;;5116279;27;20062;-61
2020/12/25 01:00:59;;;;;;;5.13;0.68;;;4.00;99.90;;;;;;5134625;27;20047;-60
2020/12/25 01:03:25;;;;;;;5.70;0.45;;;4.00;99.90;;;;;;5124975;27;20024;-61
2020/12/25 01:05:50;;;;;;;1.02;0.40;;;3.90;99.90;;;;;;5130817;27;20026;-61
2020/12/25 01:08:16;;;;;;;3.08;0.77;;;3.90;99.90;;;;;;5115411;27;20054;-60
2020/12/25 01:10:42;;;;;;;1.85;0.63;;;3.90;99.90;;;;;;5131302;27;20200;-60
2020/12/25 01:13:08;;;;;;;3.42;0.43;;;3.90;99.90;;;;;;5125721;27;20087;-61
2020/12/25 01:15:33;;;;;;;2.47;0.30;;;3.90;99.90;;;;;;5124836;27;20023;-60
2020/12/25 01:17:59;;;;;;;3.33;0.60;;;3.90;99.90;;;;;;5127652;27;20046;-60
2020/12/25 01:20:24;;;;;;;1.45;0.50;;;3.90;99.90;;;;;;5123609;27;20020;-59
2020/12/25 01:22:50;;;;;;;5.05;1.05;;;3.90;99.90;;;;;;5126253;27;20019;-60
2020/12/25 01:25:15;;;;;;;3.08;0.50;;;3.90;99.90;;;;;;5127486;27;20522;-58
2020/12/25 01:27:41;;;;;;;2.83;0.55;;;4.00;99.90;;;;;;5127013;27;20777;-59
2020/12/25 01:30:06;;;;;;;3.10;0.95;;;3.90;99.90;;;;;;5128437;27;20102;-60
2020/12/25 01:32:34;;;;;;;3.15;1.00;;;4.00;99.90;;;;;;5123173;27;20081;-58
2020/12/25 01:35:01;;;;;;;4.45;0.90;;;3.90;99.90;;;;;;5109808;27;20030;-60
2020/12/25 01:37:27;;;;;;;3.63;0.52;;;3.90;99.90;;;;;;5119760;27;20028;-59
2020/12/25 01:39:52;;;;;;;2.20;0.70;;;4.00;99.90;;;;;;5131229;27;20030;-60
2020/12/25 01:42:18;;;;;;;3.95;0.82;;;3.90;99.90;;;;;;5112286;27;20030;-60
2020/12/25 01:44:43;;;;;;;2.45;0.88;;;3.90;99.90;;;;;;5133977;27;20445;-59
2020/12/25 01:47:09;;;;;;;3.55;0.93;;;3.90;99.90;;;;;;5133173;27;20050;-59
2020/12/25 01:49:35;;;;;;;2.53;0.85;;;4.00;99.90;;;;;;5128572;27;20038;-58
2020/12/25 01:52:00;;;;;;;1.35;0.70;;;4.00;99.90;;;;;;5130448;27;20027;-59
2020/12/25 01:54:26;;;;;;;5.47;1.25;;;4.00;99.90;;;;;;5122719;27;20023;-60
2020/12/25 01:56:53;;;;;;;4.15;1.10;;;4.00;99.90;;;;;;5126196;27;20485;-59
2020/12/25 01:59:19;;;;;;;10.27;1.40;;;4.10;99.90;;;;;;5105906;28;20031;-60
2020/12/25 02:01:45;;;;;;;6.38;1.55;;;4.10;99.90;;;;;;5118383;27;20026;-59
2020/12/25 02:04:10;;;;;;;2.45;0.85;;;4.10;99.90;;;;;;5120694;27;20228;-60
2020/12/25 02:06:38;;;;;;;6.80;1.45;;;4.20;99.90;;;;;;5119719;27;20061;-61
2020/12/25 02:09:03;;;;;;;4.85;1.67;;;4.10;99.90;;;;;;5125839;27;20478;-59
2020/12/25 02:11:31;;;;;;;2.70;1.00;;;4.20;99.90;;;;;;5130396;27;20047;-58
2020/12/25 02:13:57;;;;;;;5.07;1.15;;;4.20;99.90;;;;;;5133070;27;20080;-60
2020/12/25 02:16:22;;;;;;;6.63;1.15;;;4.20;99.90;;;;;;5146471;28;20273;-59
2020/12/25 02:18:48;;;;;;;3.10;0.73;;;4.30;99.90;;;;;;5153014;27;20150;-58
2020/12/25 02:21:13;;;;;;;7.95;1.20;;;4.20;99.90;;;;;;5151641;27;20015;-59
2020/12/25 02:23:39;;;;;;;3.42;0.98;;;4.30;99.90;;;;;;5145876;27;20037;-58
2020/12/25 02:26:04;;;;;;;7.15;1.30;;;4.30;99.90;;;;;;5129699;27;20052;-58
2020/12/25 02:28:30;;;;;;;14.02;1.70;;;4.30;99.90;;;;;;5128583;27;20365;-60
2020/12/25 02:30:56;;;;;;;3.15;0.73;;;4.30;99.90;;;;;;5121876;27;20546;-59
2020/12/25 02:33:21;;;;;;;5.57;1.20;;;4.30;99.90;;;;;;5126458;27;20027;-59
2020/12/25 02:35:47;;;;;;;4.13;1.00;;;4.20;99.90;;;;;;5131842;27;20102;-58
2020/12/25 02:38:13;;;;;;;6.50;1.15;;;4.20;99.90;;;;;;5132885;27;20849;-60
2020/12/25 02:40:38;;;;;;;1.98;1.13;;;4.20;99.90;;;;;;5134060;27;20023;-58
2020/12/25 02:43:04;;;;;;;4.75;0.68;;;4.20;99.90;;;;;;5121301;27;20069;-59
2020/12/25 02:45:29;;;;;;;7.57;1.27;;;4.30;99.90;;;;;;5133790;27;20049;-60
2020/12/25 02:47:55;;;;;;;4.75;0.68;;;4.30;99.90;;;;;;5132733;27;20019;-59
2020/12/25 02:50:20;;;;;;;7.88;0.90;;;4.30;99.90;;;;;;5133862;27;20030;-59
2020/12/25 02:52:46;;;;;;;3.85;1.10;;;4.30;99.90;;;;;;5128795;27;20023;-61
2020/12/25 02:55:13;;;;;;;4.85;0.77;;;4.30;99.90;;;;;;5135662;27;20053;-59
2020/12/25 02:57:39;;;;;;;4.75;0.50;;;4.40;99.90;;;;;;5136441;27;20477;-59
2020/12/25 03:00:05;;;;;;;2.05;0.73;;;4.40;99.90;;;;;;5134807;27;20472;-59
2020/12/25 03:02:30;;;;;;;1.00;0.70;;;4.40;99.90;;;;;;5134191;27;20469;-59
2020/12/25 03:04:56;;;;;;;2.05;0.47;;;4.40;99.90;;;;;;5133483;27;20055;-59
2020/12/25 03:07:21;;;;;;;5.43;0.82;;;4.40;99.90;;;;;;5133413;27;20027;-59
2020/12/25 03:09:47;;;;;;;5.13;1.20;;;4.40;99.90;;;;;;5136738;27;20062;-58
2020/12/25 03:12:12;;;;;;;4.20;0.90;;;4.40;99.90;;;;;;5133954;27;20070;-59
2020/12/25 03:14:38;;;;;;;1.52;0.60;;;4.40;99.90;;;;;;5132079;27;20075;-59
2020/12/25 03:17:04;;;;;;;1.67;0.73;;;4.40;99.90;;;;;;5150349;27;20039;-57
2020/12/25 03:19:29;;;;;;;4.55;0.90;;;4.40;99.90;;;;;;5167970;27;20030;-59
2020/12/25 03:21:55;;;;;;;2.45;0.65;;;4.40;99.90;;;;;;5139031;27;20411;-58
2020/12/25 03:24:20;;;;;;;4.97;0.93;;;4.40;99.90;;;;;;5159600;27;20127;-60
2020/12/25 03:26:46;;;;;;;2.83;0.60;;;4.40;99.90;;;;;;5136625;27;20072;-60
2020/12/25 03:29:12;;;;;;;1.63;0.80;;;4.40;99.90;;;;;;5131822;27;20102;-60
2020/12/25 03:31:37;;;;;;;2.42;0.95;;;4.40;99.90;;;;;;5142610;27;20631;-61
2020/12/25 03:34:03;;;;;;;3.42;0.73;;;4.50;99.90;;;;;;5138158;27;20087;-58
2020/12/25 03:36:30;;;;;;;13.15;1.50;;;4.50;99.90;;;;;;5141860;27;20027;-59
2020/12/25 03:38:55;;;;;;;4.03;0.93;;;4.50;99.90;;;;;;5134326;27;20051;-59
2020/12/25 03:41:21;;;;;;;8.38;1.23;;;4.40;99.90;;;;;;5127730;27;20110;-59
2020/12/25 03:43:46;;;;;;;7.30;1.10;;;4.50;99.90;;;;;;5135533;27;20031;-59
2020/12/25 03:46:12;;;;;;;6.32;0.77;;;4.50;99.90;;;;;;5128823;27;20361;-59
2020/12/25 03:48:39;;;;;;;9.07;0.85;;;4.50;99.90;;;;;;5123104;27;20032;-58
2020/12/25 03:51:04;;;;;;;5.32;1.15;;;4.50;99.90;;;;;;5124195;27;20023;-60
2020/12/25 03:53:30;;;;;;;2.75;0.73;;;4.50;99.90;;;;;;5136652;27;20409;-59
2020/12/25 03:55:56;;;;;;;3.65;0.73;;;4.50;99.90;;;;;;5144295;27;20062;-58
2020/12/25 03:58:21;;;;;;;6.60;0.65;;;4.50;99.90;;;;;;5141761;27;20079;-59
2020/12/25 04:00:47;;;;;;;3.40;0.77;;;4.50;99.90;;;;;;5125808;27;20024;-59
2020/12/25 04:03:13;;;;;;;6.88;1.35;;;4.50;99.90;;;;;;5142276;27;20023;-59
2020/12/25 04:05:39;;;;;;;7.40;0.80;;;4.50;99.90;;;;;;5140498;27;20030;-59
2020/12/25 04:08:05;;;;;;;4.80;0.70;;;4.50;99.90;;;;;;5153308;27;20058;-58
2020/12/25 04:10:31;;;;;;;6.00;0.90;;;4.50;99.90;;;;;;5137055;27;20539;-59
2020/12/25 04:12:57;;;;;;;6.65;0.68;;;4.40;99.90;;;;;;5131252;27;20019;-62
2020/12/25 04:15:23;;;;;;;10.05;0.90;;;4.40;99.90;;;;;;5132774;27;20168;-60
2020/12/25 04:17:48;;;;;;;4.72;0.90;;;4.40;99.90;;;;;;5141026;27;20051;-58
2020/12/25 04:20:14;;;;;;;5.65;0.90;;;4.40;99.90;;;;;;5141071;27;20027;-60
2020/12/25 04:22:39;;;;;;;4.07;0.65;;;4.30;99.90;;;;;;5129789;27;20023;-60
2020/12/25 04:25:05;;;;;;;1.38;0.60;;;4.30;99.90;;;;;;5124635;27;20448;-59
2020/12/25 04:27:31;;;;;;;5.47;0.63;;;4.30;99.90;;;;;;5133064;27;20015;-60
2020/12/25 04:29:56;;;;;;;3.80;0.63;;;4.20;99.90;;;;;;5132634;27;20034;-59
2020/12/25 04:32:22;;;;;;;4.35;0.82;;;4.20;99.90;;;;;;5131609;27;20060;-60
2020/12/25 04:34:47;;;;;;;2.28;1.20;;;4.20;99.90;;;;;;5133066;27;20536;-59
2020/12/25 04:37:13;;;;;;;3.95;0.95;;;4.20;99.90;;;;;;5132715;27;20031;-59
2020/12/25 04:39:39;;;;;;;10.00;1.52;;;4.10;99.90;;;;;;5132907;27;20024;-59
2020/12/25 04:42:04;;;;;;;6.18;0.65;;;4.10;99.90;;;;;;5121261;27;20107;-59
2020/12/25 04:44:30;;;;;;;5.88;0.98;;;4.10;99.90;;;;;;5110963;27;20054;-60
2020/12/25 04:47:07;;;;;;;5.70;0.90;;;4.20;99.90;;;;;;5125675;27;20031;-60
2020/12/25 04:49:34;;;;;;;4.38;0.95;;;4.20;99.90;;;;;;5130162;27;20451;-60
2020/12/25 04:52:00;;;;;;;5.07;1.00;;;4.20;99.90;;;;;;5130859;27;20027;-60
2020/12/25 04:54:25;;;;;;;4.55;0.88;;;4.20;99.90;;;;;;5127843;27;20500;-60
2020/12/25 04:56:51;;;;;;;7.57;1.20;;;4.20;99.90;;;;;;5128421;27;20041;-60
2020/12/25 04:59:16;;;;;;;6.22;1.00;;;4.20;99.90;;;;;;5133546;27;20027;-58
2020/12/25 05:01:43;;;;;;;3.47;0.68;;;4.20;99.90;;;;;;5132309;27;20050;-59
2020/12/25 05:04:19;;;;;;;6.32;0.68;;;4.20;99.90;;;;;;5132435;27;20096;-59
2020/12/25 05:06:47;;;;;;;7.20;1.00;;;4.20;99.90;;;;;;5132807;27;20023;-60
2020/12/25 05:09:15;;;;;;;8.05;1.20;;;4.20;99.90;;;;;;5134279;27;20071;-59
2020/12/25 05:11:41;;;;;;;6.20;1.10;;;4.20;99.90;;;;;;5130491;27;20051;-59
2020/12/25 05:14:07;;;;;;;4.38;0.50;;;4.10;99.90;;;;;;5129533;27;20050;-60
2020/12/25 05:16:34;;;;;;;3.58;0.60;;;4.20;99.90;;;;;;5136840;27;20015;-58
2020/12/25 05:19:00;;;;;;;6.15;1.10;;;4.10;99.90;;;;;;5121857;27;20016;-59
2020/12/25 05:21:26;;;;;;;5.53;0.98;;;4.10;99.90;;;;;;5130022;27;20043;-58
2020/12/25 05:23:53;;;;;;;9.30;0.85;;;4.10;99.90;;;;;;5117156;27;20016;-59
2020/12/25 05:26:19;;;;;;;3.95;0.63;;;4.20;99.90;;;;;;5132115;27;20114;-59
2020/12/25 05:28:49;;;;;;;7.30;1.20;;;4.10;99.90;;;;;;5130908;27;20047;-59
2020/12/25 05:31:16;;;;;;;6.68;1.67;;;4.20;99.90;;;;;;5131206;27;20024;-60
2020/12/25 05:33:42;;;;;;;12.82;1.33;;;4.10;99.90;;;;;;5130281;27;20027;-60
2020/12/25 05:36:14;;;;;;;4.78;1.20;;;4.10;99.90;;;;;;5142889;27;20102;-58
2020/12/25 05:38:45;;;;;;;8.40;1.83;;;4.10;99.90;;;;;;5155720;27;20014;-57
2020/12/25 05:41:11;;;;;;;4.07;0.85;;;4.10;99.90;;;;;;5118758;28;20015;-59
2020/12/25 05:43:37;;;;;;;7.13;1.00;;;4.10;99.90;;;;;;5133219;27;20053;-60
2020/12/25 05:46:02;;;;;;;10.82;2.08;;;4.20;99.90;;;;;;5129151;27;20023;-58
2020/12/25 05:48:28;;;;;;;13.30;1.27;;;4.20;99.90;;;;;;5129399;27;20058;-59
2020/12/25 05:50:53;;;;;;;13.70;1.42;;;4.20;99.90;;;;;;5138537;27;20053;-59
2020/12/25 05:53:19;;;;;;;8.65;1.13;;;4.30;99.90;;;;;;5120256;27;20062;-58
2020/12/25 05:55:45;;;;;;;3.47;1.15;;;4.20;99.90;;;;;;5129644;27;20486;-59
2020/12/25 05:58:15;;;;;;;31.20;8.63;;;4.20;99.90;;;;;;5129465;27;20046;-59
2020/12/25 06:00:42;;;;;;;32.05;11.20;;;4.20;99.90;;;;;;5118552;27;20027;-59
2020/12/25 06:03:12;;;;;;;17.30;4.35;;;4.20;99.90;;;;;;5123651;27;20110;-59
2020/12/25 06:05:40;;;;;;;9.65;1.92;;;4.30;99.90;;;;;;5144817;27;20022;-58
2020/12/25 06:08:15;;;;;;;10.27;1.67;;;4.30;99.90;;;;;;5133735;27;20038;-59
2020/12/25 06:10:44;;;;;;;11.45;1.73;;;4.30;99.90;;;;;;5135958;27;20590;-60
2020/12/25 06:13:13;;;;;;;5.78;1.10;;;4.30;99.90;;;;;;5137152;27;20106;-60
2020/12/25 06:15:43;;;;;;;12.80;2.17;;;4.40;99.90;;;;;;5132114;27;20587;-61
2020/12/25 06:18:30;;;;;;;10.27;1.42;;;4.40;99.90;;;;;;5136246;27;20648;-61
2020/12/25 06:21:08;;;;;;;16.65;1.17;;;4.50;99.90;;;;;;5139018;27;20028;-62
2020/12/25 06:23:35;;;;;;;12.07;1.05;;;4.50;99.90;;;;;;5129138;27;20527;-61
2020/12/25 06:26:06;;;;;;;7.93;1.55;;;4.60;99.90;;;;;;5127953;27;20058;-61
2020/12/25 06:28:31;;;;;;;11.25;1.27;;;4.70;99.90;;;;;;5147416;27;20081;-60
2020/12/25 06:30:57;;;;;;;13.45;1.10;;;4.60;99.90;;;;;;5139283;27;20431;-60
2020/12/25 06:33:29;;;;;;;10.63;1.92;;;4.70;99.90;;;;;;5138863;27;20027;-61
2020/12/25 06:35:58;;;;;;;8.07;0.88;;;4.60;99.90;;;;;;5142396;27;20029;-61
2020/12/25 06:38:24;;;;;;;6.30;1.05;;;4.60;99.90;;;;;;5149158;27;21993;-62
2020/12/25 06:40:54;;;;;;;11.45;1.30;;;4.60;99.90;;;;;;5143530;27;20031;-59
2020/12/25 06:43:20;;;;;;;5.20;1.30;;;4.60;99.90;;;;;;5139842;27;20037;-59
2020/12/25 06:45:57;;;;;;;10.02;1.70;;;4.50;99.90;;;;;;5128998;27;20023;-60
2020/12/25 06:48:27;;;;;;;6.80;1.00;;;4.50;99.90;;;;;;5146178;27;20094;-60
2020/12/25 06:51:00;;;;;;;6.88;0.50;;;4.50;99.90;;;;;;5136263;27;20046;-60
2020/12/25 06:53:40;;;;;;;4.95;0.80;;;4.40;99.90;;;;;;5140445;27;20455;-60
2020/12/25 06:56:11;;;;;;;5.10;1.42;;;4.40;99.90;;;;;;5140488;27;20554;-60
2020/12/25 06:58:45;;;;;;;6.72;0.93;;;4.30;99.90;;;;;;5145894;27;20062;-60
2020/12/25 07:01:12;;;;;;;3.08;0.85;;;4.30;99.90;;;;;;5135429;27;20483;-60
2020/12/25 07:03:38;;;;;;;4.60;0.73;;;4.30;99.90;;;;;;5135871;27;20031;-60
2020/12/25 07:06:07;;;;;;;3.00;0.90;;;4.30;99.90;;;;;;5130057;27;20016;-60
2020/12/25 07:08:38;;;;;;;9.00;0.80;;;4.30;99.90;;;;;;5129849;27;20027;-60
2020/12/25 07:11:08;;;;;;;7.50;1.02;;;4.30;99.90;;;;;;5140573;27;20034;-61
2020/12/25 07:13:35;;;;;;;3.30;0.63;;;4.30;99.90;;;;;;5140036;27;20015;-61
2020/12/25 07:16:01;;;;;;;8.93;1.02;;;4.20;99.90;;;;;;5138356;27;20045;-61
2020/12/25 07:18:27;;;;;;;8.25;0.90;;;4.20;99.90;;;;;;5144055;27;20412;-61
2020/12/25 07:21:01;;;;;;;6.22;0.65;;;4.20;99.90;;;;;;5142647;27;20061;-59
2020/12/25 07:23:27;;;;;;;4.57;1.00;;;4.20;99.90;;;;;;5134357;27;20539;-62
2020/12/25 07:26:00;;;;;;;7.05;0.98;;;4.20;99.90;;;;;;5122366;27;20015;-60
2020/12/25 07:28:27;;;;;;;10.00;1.35;;;4.10;99.90;;;;;;5134378;27;20523;-61
2020/12/25 07:30:54;;;;;;;9.65;1.00;;;4.10;99.90;;;;;;5146241;27;20367;-59
2020/12/25 07:33:20;;;;;;;9.45;1.15;;;4.10;99.90;;;;;;5112083;27;20540;-60
2020/12/25 07:35:46;;;;;;;6.07;1.00;;;4.10;99.90;;;;;;5136369;27;20079;-60
2020/12/25 07:38:15;;;;;;;5.65;0.85;;;4.10;99.90;;;;;;5146643;27;20014;-60
2020/12/25 07:40:42;;;;;;;7.85;0.85;;;4.10;99.90;;;;;;5139121;27;20024;-60
2020/12/25 07:43:09;;;;;;;9.35;1.10;;;4.00;99.90;;;;;;5138919;27;20019;-60
2020/12/25 07:45:35;;;;;;;5.47;1.00;;;4.10;99.90;;;;;;5135188;27;20084;-60
2020/12/25 07:48:06;;;;;;;3.65;0.57;;;4.00;99.90;;;;;;5130934;27;20403;-59
2020/12/25 07:50:43;;;;;;;9.27;0.70;;;4.00;99.90;;;;;;5128375;27;20031;-60
2020/12/25 07:53:13;;;;;;;13.73;1.55;;;4.00;99.90;;;;;;5130815;27;20084;-60
2020/12/25 07:55:44;;;;;;;6.88;1.02;;;3.90;99.90;;;;;;5132067;27;20030;-60
2020/12/25 07:58:18;;;;;;;6.97;1.08;;;3.90;99.90;;;;;;5131380;27;20038;-59
2020/12/25 08:00:44;;;;;;;8.55;0.93;;;3.90;99.90;;;;;;5128898;27;20399;-60
2020/12/25 08:03:11;;;;;;;5.13;0.65;;;3.80;99.90;;;;;;5131186;27;20035;-60
2020/12/25 08:05:38;;;;;;;11.60;1.30;;;3.80;99.90;;;;;;5131265;27;20034;-60
2020/12/25 08:08:04;;;;;;;11.02;0.80;;;3.80;99.90;;;;;;5130983;27;20035;-60
2020/12/25 08:10:30;;;;;;;10.65;1.30;;;3.80;99.90;;;;;;5132067;27;20524;-58
2020/12/25 08:12:57;;;;;;;5.65;1.35;;;3.80;99.90;;;;;;5144626;27;20039;-60
2020/12/25 08:15:24;;;;;;;5.10;1.00;;;3.90;99.90;;;;;;5118967;27;20027;-60
2020/12/25 08:17:52;;;;;;;4.70;1.00;;;3.90;99.90;;;;;;5131785;27;20072;-60
2020/12/25 08:20:17;;;;;;;8.95;1.35;;;4.00;99.90;;;;;;5127559;27;20110;-59
2020/12/25 08:22:43;;;;;;;7.65;1.25;;;4.00;99.90;;;;;;5122683;27;20126;-60
2020/12/25 08:25:09;;;;;;;7.75;1.33;;;4.10;99.90;;;;;;5130481;27;20035;-60
2020/12/25 08:27:36;;;;;;;4.97;1.27;;;4.20;99.90;;;;;;5145965;27;20074;-60
2020/12/25 08:30:05;;;;;;;4.93;1.17;;;4.30;99.90;;;;;;5149827;27;20468;-60
2020/12/25 08:32:32;;;;;;;8.18;1.70;;;4.40;99.90;;;;;;5146202;27;20025;-61
2020/12/25 08:35:09;;;;;;;7.95;1.02;;;4.40;99.90;;;;;;5121175;27;20023;-59
2020/12/25 08:37:35;;;;;;;11.52;1.38;;;4.40;99.90;;;;;;5155116;27;20067;-59
2020/12/25 08:40:16;;;;;;;10.95;1.42;;;4.30;99.90;;;;;;5152579;27;20042;-61
2020/12/25 08:42:42;;;;;;;3.47;0.50;;;4.30;99.90;;;;;;5145183;27;20023;-60
2020/12/25 08:45:08;;;;;;;2.20;0.70;;;4.20;99.90;;;;;;5143555;27;20132;-59
2020/12/25 08:47:34;;;;;;;4.72;1.00;;;4.20;99.90;;;;;;5127636;27;20511;-59
2020/12/25 08:50:00;;;;;;;4.60;0.95;;;4.20;99.90;;;;;;5126774;27;20023;-60
2020/12/25 08:52:25;;;;;;;5.68;0.80;;;4.10;99.90;;;;;;5123956;27;20024;-60
2020/12/25 08:54:58;;;;;;;6.85;1.08;;;4.10;99.90;;;;;;5125908;27;20027;-60
2020/12/25 08:57:24;;;;;;;4.55;1.27;;;4.10;99.90;;;;;;5131158;27;20030;-60
2020/12/25 09:00:03;;;;;;;8.63;1.73;;;4.20;99.90;;;;;;5129938;27;20027;-60
2020/12/25 09:02:29;;;;;;;12.07;1.23;;;4.20;99.90;;;;;;5130125;27;20087;-58
2020/12/25 09:04:54;;;;;;;11.02;1.63;;;4.20;99.90;;;;;;5150311;27;20019;-60
2020/12/25 09:07:20;;;;;;;9.60;2.45;;;4.20;99.90;;;;;;5153238;27;20015;-59
2020/12/25 09:09:45;;;;;;;7.60;2.60;;;4.20;99.90;;;;;;5133682;27;20023;-60
2020/12/25 09:12:11;;;;;;;5.78;1.52;;;4.20;99.90;;;;;;5127346;27;20148;-63
2020/12/25 09:14:36;;;;;;;8.63;3.40;;;4.30;99.90;;;;;;5128801;27;20407;-60
2020/12/25 09:17:02;;;;;;;15.35;3.25;;;4.30;99.90;;;;;;5119010;27;20465;-59
2020/12/25 09:19:27;;;;;;;13.52;2.90;;;4.30;99.90;;;;;;5129382;27;20030;-60
2020/12/25 09:21:53;;;;;;;15.48;3.15;;;4.40;99.90;;;;;;5125404;27;20520;-61
2020/12/25 09:24:20;;;;;;;9.23;1.50;;;4.40;99.90;;;;;;5130713;27;20149;-60
2020/12/25 09:26:47;;;;;;;5.53;1.10;;;4.40;99.90;;;;;;5127879;27;20015;-60
2020/12/25 09:29:12;;;;;;;10.90;1.45;;;4.50;99.90;;;;;;5130530;27;20167;-60
2020/12/25 09:31:38;;;;;;;8.07;1.40;;;4.60;99.90;;;;;;5124356;27;20416;-60
2020/12/25 09:34:03;;;;;;;7.10;1.15;;;4.70;99.90;;;;;;5116919;27;20553;-61
2020/12/25 09:36:29;;;;;;;13.07;1.52;;;4.90;99.90;;;;;;5111565;27;20081;-59
2020/12/25 09:38:54;;;;;;;3.60;1.00;;;5.10;99.90;;;;;;5127416;27;20073;-60
2020/12/25 09:41:20;;;;;;;5.78;0.80;;;5.10;99.90;;;;;;5128658;27;20045;-58
2020/12/25 09:43:45;;;;;;;7.63;1.38;;;5.20;99.90;;;;;;5115181;27;20443;-61
2020/12/25 09:46:11;;;;;;;6.78;1.60;;;5.10;99.90;;;;;;5120365;27;20019;-61
2020/12/25 09:48:37;;;;;;;6.38;1.48;;;5.20;99.90;;;;;;5124181;27;20118;-61
2020/12/25 09:51:02;;;;;;;12.20;2.00;;;5.30;99.90;;;;;;5121724;27;20031;-61
2020/12/25 09:53:28;;;;;;;8.88;1.05;;;5.30;99.90;;;;;;5123508;27;20127;-59
2020/12/25 09:55:53;;;;;;;6.72;1.05;;;5.30;99.90;;;;;;5119977;27;20564;-61
2020/12/25 09:58:19;;;;;;;7.50;1.20;;;5.40;99.90;;;;;;5119156;27;20516;-61
2020/12/25 10:00:44;;;;;;;8.70;1.05;;;5.40;99.90;;;;;;5118477;27;20023;-60
2020/12/25 10:03:10;;;;;;;3.75;1.15;;;5.30;99.90;;;;;;5122886;27;20015;-59
2020/12/25 10:05:35;;;;;;;6.18;1.48;;;5.30;99.90;;;;;;5121558;27;20026;-61
2020/12/25 10:08:01;;;;;;;7.82;1.52;;;5.20;99.90;;;;;;5120638;27;20015;-59
2020/12/25 10:10:27;;;;;;;4.82;1.00;;;5.20;99.90;;;;;;5106678;27;20059;-59
2020/12/25 10:12:55;;;;;;;4.55;1.10;;;5.10;99.90;;;;;;5124197;27;20035;-59
2020/12/25 10:15:21;;;;;;;5.57;1.17;;;5.10;99.90;;;;;;5125473;27;20106;-60
2020/12/25 10:17:47;;;;;;;7.05;1.33;;;5.10;99.90;;;;;;5100706;27;20044;-58
2020/12/25 10:20:12;;;;;;;4.68;1.50;;;5.10;99.90;;;;;;5107895;27;20098;-59
2020/12/25 10:22:38;;;;;;;8.07;1.35;;;5.10;99.90;;;;;;5118538;27;20023;-60
2020/12/25 10:25:04;;;;;;;11.68;1.23;;;5.10;99.90;;;;;;5110528;27;20012;-59
2020/12/25 10:27:30;;;;;;;11.13;1.10;;;5.10;99.90;;;;;;5113646;27;20336;-59
2020/12/25 10:29:55;;;;;;;13.15;1.77;;;5.10;99.90;;;;;;5115089;27;20601;-60
2020/12/25 10:32:21;;;;;;;6.85;0.98;;;5.10;99.90;;;;;;5118643;27;20400;-60
2020/12/25 10:34:46;;;;;;;13.90;1.95;;;5.10;99.90;;;;;;5131784;28;20039;-59
2020/12/25 10:37:12;;;;;;;3.85;1.20;;;5.10;99.90;;;;;;5125616;27;20489;-58
2020/12/25 10:39:37;;;;;;;10.35;1.40;;;5.10;99.90;;;;;;5118217;28;20114;-59
2020/12/25 10:42:10;;;;;;;10.27;1.33;;;5.20;99.90;;;;;;5119045;27;20096;-61
2020/12/25 10:44:36;;;;;;;3.88;1.10;;;5.30;99.90;;;;;;5083371;27;524612;-58
2020/12/25 10:47:02;;;;;;;8.07;1.23;;;5.40;99.90;;;;;;5115548;27;20189;-61
2020/12/25 10:49:28;;;;;;;13.25;1.40;;;5.50;99.90;;;;;;5122068;27;20027;-59
2020/12/25 10:51:53;;;;;;;6.18;1.40;;;5.60;99.90;;;;;;5120627;27;20496;-60
2020/12/25 10:54:19;;;;;;;13.00;2.20;;;5.70;99.90;;;;;;5116537;27;20066;-62
2020/12/25 10:56:44;;;;;;;7.57;1.00;;;5.80;99.90;;;;;;5123894;27;20493;-59
2020/12/25 10:59:10;;;;;;;8.40;1.15;;;5.80;99.90;;;;;;5125950;27;20037;-59
2020/12/25 11:01:35;;;;;;;10.20;1.50;;;5.70;99.90;;;;;;5124178;27;20445;-60
2020/12/25 11:04:01;;;;;;;12.55;1.60;;;5.70;99.90;;;;;;5133921;27;20026;-61
2020/12/25 11:06:34;;;;;;;9.35;1.67;;;5.70;99.90;;;;;;5120929;27;20112;-60
2020/12/25 11:09:01;;;;;;;3.17;1.08;;;5.70;99.90;;;;;;5129339;27;20027;-59
2020/12/25 11:11:29;;;;;;;5.60;0.90;;;5.50;99.90;;;;;;5119520;27;20057;-60
2020/12/25 11:13:55;;;;;;;3.78;0.63;;;5.40;99.90;;;;;;5128477;27;20098;-61
2020/12/25 11:16:25;;;;;;;1.85;0.77;;;5.40;99.90;;;;;;5132783;27;20027;-61
2020/12/25 11:18:52;;;;;;;5.65;0.88;;;5.50;99.90;;;;;;5112609;27;20027;-59
2020/12/25 11:21:22;;;;;;;5.53;1.02;;;5.50;99.90;;;;;;5129758;27;20032;-60
2020/12/25 11:23:50;;;;;;;6.85;1.23;;;5.50;99.90;;;;;;5125827;27;20506;-60
2020/12/25 11:26:25;;;;;;;5.53;0.98;;;5.50;99.90;;;;;;5128643;27;20016;-61
2020/12/25 11:28:52;;;;;;;4.88;1.20;;;5.70;99.90;;;;;;5130561;27;20046;-61
2020/12/25 11:31:18;;;;;;;10.02;1.67;;;5.80;99.90;;;;;;5126595;27;20139;-60
2020/12/25 11:33:45;;;;;;;4.15;1.17;;;5.70;99.90;;;;;;5125316;27;20023;-60
2020/12/25 11:36:19;;;;;;;6.13;1.17;;;5.50;99.90;;;;;;5119796;27;20024;-60
2020/12/25 11:38:45;;;;;;;7.30;1.20;;;5.50;99.90;;;;;;5132768;27;20197;-62
2020/12/25 11:41:14;;;;;;;11.15;1.15;;;5.40;99.90;;;;;;5130718;27;20367;-63
2020/12/25 11:43:40;;;;;;;9.35;1.40;;;5.50;99.90;;;;;;5123131;27;20082;-60
2020/12/25 11:46:06;;;;;;;6.53;1.77;;;5.80;99.90;;;;;;5127068;27;20019;-60
2020/12/25 11:48:32;;;;;;;6.75;2.20;;;6.40;99.90;;;;;;5128586;27;20403;-62
2020/12/25 11:50:59;;;;;;;10.05;1.70;;;6.50;99.90;;;;;;5132097;27;20433;-62
2020/12/25 11:53:25;;;;;;;12.77;1.80;;;6.30;99.90;;;;;;5134456;27;20075;-63
2020/12/25 11:58:28;;;;;;;8.27;2.08;;;5.90;99.90;;;;;;5119780;27;20488;-60
2020/12/25 12:00:53;;;;;;;7.57;1.67;;;6.10;99.90;;;;;;5116108;27;20039;-61
2020/12/25 12:03:19;;;;;;;7.78;1.35;;;6.30;99.90;;;;;;5125505;27;20035;-61
2020/12/25 12:05:44;;;;;;;5.78;1.05;;;6.60;99.90;;;;;;5111947;27;20147;-61
2020/12/25 12:08:11;;;;;;;2.08;1.00;;;6.70;99.90;;;;;;5116099;27;20024;-60
2020/12/25 12:10:38;;;;;;;5.78;1.05;;;6.80;99.90;;;;;;5130074;27;20027;-61
2020/12/25 12:13:04;;;;;;;6.65;1.65;;;7.10;99.90;;;;;;5103433;28;20038;-61
2020/12/25 12:15:36;;;;;;;9.38;1.30;;;7.30;99.90;;;;;;5122248;27;20038;-61
2020/12/25 12:18:03;;;;;;;5.20;1.10;;;7.20;99.90;;;;;;5119978;27;20031;-60
2020/12/25 12:20:28;;;;;;;4.82;0.90;;;7.10;99.90;;;;;;5112070;27;20084;-59
2020/12/25 12:22:54;;;;;;;5.80;1.02;;;6.80;99.90;;;;;;5123926;27;20431;-60
2020/12/25 12:25:20;;;;;;;6.53;1.10;;;6.20;99.90;;;;;;5133739;27;20023;-63
2020/12/25 12:27:45;;;;;;;7.93;1.20;;;5.90;99.90;;;;;;5126105;27;20042;-61
2020/12/25 12:30:11;;;;;;;9.88;1.45;;;5.90;99.90;;;;;;5135871;27;20033;-61
2020/12/25 12:32:36;;;;;;;7.22;1.55;;;5.90;99.90;;;;;;5139767;27;20132;-61
2020/12/25 12:35:02;;;;;;;5.20;1.00;;;5.80;99.90;;;;;;5134780;27;20038;-62
2020/12/25 12:37:28;;;;;;;9.35;1.40;;;5.50;99.90;;;;;;5124838;27;20040;-62
2020/12/25 12:39:54;;;;;;;5.72;1.55;;;5.40;99.90;;;;;;5119092;27;20031;-62
2020/12/25 12:42:19;;;;;;;7.72;1.13;;;5.30;99.90;;;;;;5129767;27;20104;-62
2020/12/25 12:44:45;;;;;;;7.13;1.20;;;5.20;99.90;;;;;;5131110;27;20501;-61
2020/12/25 12:47:10;;;;;;;6.18;1.55;;;5.20;99.90;;;;;;5130727;27;20112;-60
2020/12/25 12:49:36;;;;;;;14.15;1.70;;;5.20;99.90;;;;;;5130976;27;20035;-61
2020/12/25 12:52:01;;;;;;;9.95;1.77;;;5.20;99.90;;;;;;5131693;27;20019;-61
2020/12/25 12:54:27;;;;;;;3.38;1.23;;;5.10;99.90;;;;;;5130872;27;20031;-62
2020/12/25 12:56:52;;;;;;;4.32;1.00;;;5.20;99.90;;;;;;5130870;27;20492;-62